sensor_id;sensor_type;location;lat;lon;timestamp;temperature;humidity
18797;DHT22;9526;52.612;13.300;2022-08-19T00:00:19;21.90;99.90
18797;DHT22;9526;52.612;13.300;2022-08-19T00:02:43;21.90;99.90
18797;DHT22;9526;52.612;13.300;2022-08-19T00:05:13;21.90;99.90
18797;DHT22;9526;52.612;13.300;2022-08-19T00:07:38;21.80;99.90
18797;DHT22;9526;52.612;13.300;2022-08-19T00:10:03;21.80;99.90
18797;DHT22;9526;52.612;13.300;2022-08-19T00:12:27;21.80;99.90
18797;DHT22;9526;52.612;13.300;2022-08-19T00:14:51;21.70;99.90
18797;DHT22;9526;52.612;13.300;2022-08-19T00:17:16;21.80;99.90
18797;DHT22;9526;52.612;13.300;2022-08-19T00:19:40;21.70;99.90
18797;DHT22;9526;52.612;13.300;2022-08-19T00:22:06;21.80;99.90
18797;DHT22;9526;52.612;13.300;2022-08-19T00:24:30;21.70;99.90
18797;DHT22;9526;52.612;13.300;2022-08-19T00:26:56;21.70;99.90
18797;DHT22;9526;52.612;13.300;2022-08-19T00:29:40;21.70;99.90
18797;DHT22;9526;52.612;13.300;2022-08-19T00:32:04;21.70;99.90
18797;DHT22;9526;52.612;13.300;2022-08-19T00:34:31;21.80;99.90
18797;DHT22;9526;52.612;13.300;2022-08-19T00:36:56;21.70;99.90
18797;DHT22;9526;52.612;13.300;2022-08-19T00:39:21;21.70;99.90
18797;DHT22;9526;52.612;13.300;2022-08-19T00:41:46;21.70;99.90
18797;DHT22;9526;52.612;13.300;2022-08-19T00:44:14;21.70;99.90
18797;DHT22;9526;52.612;13.300;2022-08-19T00:46:49;21.70;99.90
18797;DHT22;9526;52.612;13.300;2022-08-19T00:49:23;21.80;99.90
18797;DHT22;9526;52.612;13.300;2022-08-19T00:51:53;21.70;99.90
18797;DHT22;9526;52.612;13.300;2022-08-19T00:54:19;21.70;99.90
18797;DHT22;9526;52.612;13.300;2022-08-19T00:56:52;21.80;99.90
18797;DHT22;9526;52.612;13.300;2022-08-19T00:59:18;21.80;99.90
18797;DHT22;9526;52.612;13.300;2022-08-19T01:02:03;21.80;99.90
18797;DHT22;9526;52.612;13.300;2022-08-19T01:04:27;21.80;99.90
18797;DHT22;9526;52.612;13.300;2022-08-19T01:06:51;21.70;99.90
18797;DHT22;9526;52.612;13.300;2022-08-19T01:09:15;21.60;99.90
18797;DHT22;9526;52.612;13.300;2022-08-19T01:11:42;21.60;99.90
18797;DHT22;9526;52.612;13.300;2022-08-19T01:14:09;21.70;99.90
18797;DHT22;9526;52.612;13.300;2022-08-19T01:16:34;21.60;99.90
18797;DHT22;9526;52.612;13.300;2022-08-19T01:18:59;21.60;99.90
18797;DHT22;9526;52.612;13.300;2022-08-19T01:21:28;21.60;99.90
18797;DHT22;9526;52.612;13.300;2022-08-19T01:23:57;21.60;99.90
18797;DHT22;9526;52.612;13.300;2022-08-19T01:26:23;21.70;99.90
18797;DHT22;9526;52.612;13.300;2022-08-19T01:28:50;21.70;99.90
18797;DHT22;9526;52.612;13.300;2022-08-19T01:31:22;21.70;99.90
18797;DHT22;9526;52.612;13.300;2022-08-19T01:33:49;21.70;99.90
18797;DHT22;9526;52.612;13.300;2022-08-19T01:36:16;21.70;99.90
18797;DHT22;9526;52.612;13.300;2022-08-19T01:38:47;21.70;99.90
18797;DHT22;9526;52.612;13.300;2022-08-19T01:41:12;21.60;99.90
18797;DHT22;9526;52.612;13.300;2022-08-19T01:43:37;21.70;99.90
18797;DHT22;9526;52.612;13.300;2022-08-19T01:46:21;21.60;99.90
18797;DHT22;9526;52.612;13.300;2022-08-19T01:48:46;21.70;99.90
18797;DHT22;9526;52.612;13.300;2022-08-19T01:51:10;21.90;99.90
18797;DHT22;9526;52.612;13.300;2022-08-19T01:53:35;21.70;99.90
18797;DHT22;9526;52.612;13.300;2022-08-19T01:55:59;21.70;99.90
18797;DHT22;9526;52.612;13.300;2022-08-19T01:58:29;21.80;99.90
18797;DHT22;9526;52.612;13.300;2022-08-19T02:00:55;21.70;99.90
18797;DHT22;9526;52.612;13.300;2022-08-19T02:03:19;21.60;99.90
18797;DHT22;9526;52.612;13.300;2022-08-19T02:05:43;21.60;99.90
18797;DHT22;9526;52.612;13.300;2022-08-19T02:08:08;21.70;99.90
18797;DHT22;9526;52.612;13.300;2022-08-19T02:10:33;21.70;99.90
18797;DHT22;9526;52.612;13.300;2022-08-19T02:12:57;21.70;99.90
18797;DHT22;9526;52.612;13.300;2022-08-19T02:15:22;21.70;99.90
18797;DHT22;9526;52.612;13.300;2022-08-19T02:17:48;21.70;99.90
18797;DHT22;9526;52.612;13.300;2022-08-19T02:20:12;21.70;99.90
18797;DHT22;9526;52.612;13.300;2022-08-19T02:22:36;21.70;99.90
18797;DHT22;9526;52.612;13.300;2022-08-19T02:25:04;21.70;99.90
18797;DHT22;9526;52.612;13.300;2022-08-19T02:27:28;21.60;99.90
18797;DHT22;9526;52.612;13.300;2022-08-19T02:29:53;21.60;99.90
18797;DHT22;9526;52.612;13.300;2022-08-19T02:32:19;21.50;99.90
18797;DHT22;9526;52.612;13.300;2022-08-19T02:34:43;21.50;99.90
18797;DHT22;9526;52.612;13.300;2022-08-19T02:37:07;21.40;99.90
18797;DHT22;9526;52.612;13.300;2022-08-19T02:39:56;21.40;99.90
18797;DHT22;9526;52.612;13.300;2022-08-19T02:42:19;21.30;99.90
18797;DHT22;9526;52.612;13.300;2022-08-19T02:44:42;21.20;99.90
18797;DHT22;9526;52.612;13.300;2022-08-19T02:47:06;21.20;99.90
18797;DHT22;9526;52.612;13.300;2022-08-19T02:49:32;21.20;99.90
18797;DHT22;9526;52.612;13.300;2022-08-19T02:51:56;21.20;99.90
18797;DHT22;9526;52.612;13.300;2022-08-19T02:54:20;21.20;99.90
18797;DHT22;9526;52.612;13.300;2022-08-19T02:56:44;21.20;99.90
18797;DHT22;9526;52.612;13.300;2022-08-19T02:59:08;21.10;99.90
18797;DHT22;9526;52.612;13.300;2022-08-19T03:01:34;21.20;99.90
18797;DHT22;9526;52.612;13.300;2022-08-19T03:04:00;21.10;99.90
18797;DHT22;9526;52.612;13.300;2022-08-19T03:06:26;21.10;99.90
18797;DHT22;9526;52.612;13.300;2022-08-19T03:08:51;21.10;99.90
18797;DHT22;9526;52.612;13.300;2022-08-19T03:11:17;21.10;99.90
18797;DHT22;9526;52.612;13.300;2022-08-19T03:13:42;21.10;99.90
18797;DHT22;9526;52.612;13.300;2022-08-19T03:16:06;21.10;99.90
18797;DHT22;9526;52.612;13.300;2022-08-19T03:18:30;21.10;99.90
18797;DHT22;9526;52.612;13.300;2022-08-19T03:20:54;21.00;99.90
18797;DHT22;9526;52.612;13.300;2022-08-19T03:23:19;21.00;99.90
18797;DHT22;9526;52.612;13.300;2022-08-19T03:25:47;21.00;99.90
18797;DHT22;9526;52.612;13.300;2022-08-19T03:28:33;21.00;99.90
18797;DHT22;9526;52.612;13.300;2022-08-19T03:30:59;21.00;99.90
18797;DHT22;9526;52.612;13.300;2022-08-19T03:33:25;21.00;99.90
18797;DHT22;9526;52.612;13.300;2022-08-19T03:36:00;21.00;99.90
18797;DHT22;9526;52.612;13.300;2022-08-19T03:38:31;21.00;99.90
18797;DHT22;9526;52.612;13.300;2022-08-19T03:40:55;21.00;99.90
18797;DHT22;9526;52.612;13.300;2022-08-19T03:43:19;21.00;99.90
18797;DHT22;9526;52.612;13.300;2022-08-19T03:45:43;20.90;99.90
18797;DHT22;9526;52.612;13.300;2022-08-19T03:48:07;21.00;99.90
18797;DHT22;9526;52.612;13.300;2022-08-19T03:50:31;20.80;99.90
18797;DHT22;9526;52.612;13.300;2022-08-19T03:52:55;20.80;99.90
18797;DHT22;9526;52.612;13.300;2022-08-19T03:55:20;20.80;99.90
18797;DHT22;9526;52.612;13.300;2022-08-19T03:57:44;20.80;99.90
18797;DHT22;9526;52.612;13.300;2022-08-19T04:00:10;20.80;99.90
18797;DHT22;9526;52.612;13.300;2022-08-19T04:02:35;20.80;99.90
18797;DHT22;9526;52.612;13.300;2022-08-19T04:04:59;20.80;99.90
18797;DHT22;9526;52.612;13.300;2022-08-19T04:07:23;20.70;99.90
18797;DHT22;9526;52.612;13.300;2022-08-19T04:09:46;20.80;99.90
18797;DHT22;9526;52.612;13.300;2022-08-19T04:12:12;20.80;99.90
18797;DHT22;9526;52.612;13.300;2022-08-19T04:14:36;20.70;99.90
18797;DHT22;9526;52.612;13.300;2022-08-19T04:17:03;20.70;99.90
18797;DHT22;9526;52.612;13.300;2022-08-19T04:19:30;20.80;99.90
18797;DHT22;9526;52.612;13.300;2022-08-19T04:21:54;20.80;99.90
18797;DHT22;9526;52.612;13.300;2022-08-19T04:24:19;20.80;99.90
18797;DHT22;9526;52.612;13.300;2022-08-19T04:26:44;20.80;99.90
18797;DHT22;9526;52.612;13.300;2022-08-19T04:29:12;20.80;99.90
18797;DHT22;9526;52.612;13.300;2022-08-19T04:31:37;20.80;99.90
18797;DHT22;9526;52.612;13.300;2022-08-19T04:34:02;20.80;99.90
18797;DHT22;9526;52.612;13.300;2022-08-19T04:36:31;20.70;99.90
18797;DHT22;9526;52.612;13.300;2022-08-19T04:38:58;20.80;99.90
18797;DHT22;9526;52.612;13.300;2022-08-19T04:41:24;20.80;99.90
18797;DHT22;9526;52.612;13.300;2022-08-19T04:44:06;20.80;99.90
18797;DHT22;9526;52.612;13.300;2022-08-19T04:46:31;20.80;99.90
18797;DHT22;9526;52.612;13.300;2022-08-19T04:49:11;20.70;99.90
18797;DHT22;9526;52.612;13.300;2022-08-19T04:51:39;20.70;99.90
18797;DHT22;9526;52.612;13.300;2022-08-19T04:54:04;20.70;99.90
18797;DHT22;9526;52.612;13.300;2022-08-19T04:56:28;20.70;99.90
18797;DHT22;9526;52.612;13.300;2022-08-19T04:58:53;20.70;99.90
18797;DHT22;9526;52.612;13.300;2022-08-19T05:01:19;20.70;99.90
18797;DHT22;9526;52.612;13.300;2022-08-19T05:03:47;20.70;99.90
18797;DHT22;9526;52.612;13.300;2022-08-19T05:06:15;20.70;99.90
18797;DHT22;9526;52.612;13.300;2022-08-19T05:08:42;20.70;99.90
18797;DHT22;9526;52.612;13.300;2022-08-19T05:11:08;20.70;99.90
18797;DHT22;9526;52.612;13.300;2022-08-19T05:13:35;20.70;99.90
18797;DHT22;9526;52.612;13.300;2022-08-19T05:16:03;20.70;99.90
18797;DHT22;9526;52.612;13.300;2022-08-19T05:18:27;20.70;99.90
18797;DHT22;9526;52.612;13.300;2022-08-19T05:21:13;20.70;99.90
18797;DHT22;9526;52.612;13.300;2022-08-19T05:23:55;20.70;99.90
18797;DHT22;9526;52.612;13.300;2022-08-19T05:26:19;20.80;99.90
18797;DHT22;9526;52.612;13.300;2022-08-19T05:28:43;20.80;99.90
18797;DHT22;9526;52.612;13.300;2022-08-19T05:31:07;20.80;99.90
18797;DHT22;9526;52.612;13.300;2022-08-19T05:33:30;20.90;99.90
18797;DHT22;9526;52.612;13.300;2022-08-19T05:35:54;21.00;99.90
18797;DHT22;9526;52.612;13.300;2022-08-19T05:38:19;21.00;99.90
18797;DHT22;9526;52.612;13.300;2022-08-19T05:40:43;21.10;99.90
18797;DHT22;9526;52.612;13.300;2022-08-19T05:43:08;21.20;99.90
18797;DHT22;9526;52.612;13.300;2022-08-19T05:45:32;21.20;99.90
18797;DHT22;9526;52.612;13.300;2022-08-19T05:48:00;21.30;99.90
18797;DHT22;9526;52.612;13.300;2022-08-19T05:50:24;21.30;99.90
18797;DHT22;9526;52.612;13.300;2022-08-19T05:52:48;21.40;99.90
18797;DHT22;9526;52.612;13.300;2022-08-19T05:55:14;21.50;99.90
18797;DHT22;9526;52.612;13.300;2022-08-19T05:57:39;21.60;99.90
18797;DHT22;9526;52.612;13.300;2022-08-19T06:00:04;21.70;99.90
18797;DHT22;9526;52.612;13.300;2022-08-19T06:02:32;21.90;99.90
18797;DHT22;9526;52.612;13.300;2022-08-19T06:04:57;22.00;99.90
18797;DHT22;9526;52.612;13.300;2022-08-19T06:07:21;22.10;99.90
18797;DHT22;9526;52.612;13.300;2022-08-19T06:09:45;22.30;99.90
18797;DHT22;9526;52.612;13.300;2022-08-19T06:12:23;22.50;99.90
18797;DHT22;9526;52.612;13.300;2022-08-19T06:14:56;22.70;99.90
18797;DHT22;9526;52.612;13.300;2022-08-19T06:17:22;22.80;99.90
18797;DHT22;9526;52.612;13.300;2022-08-19T06:19:47;22.90;99.90
18797;DHT22;9526;52.612;13.300;2022-08-19T06:22:12;23.00;99.90
18797;DHT22;9526;52.612;13.300;2022-08-19T06:24:35;23.10;99.90
18797;DHT22;9526;52.612;13.300;2022-08-19T06:27:00;23.00;99.90
18797;DHT22;9526;52.612;13.300;2022-08-19T06:29:26;23.10;99.90
18797;DHT22;9526;52.612;13.300;2022-08-19T06:31:52;23.10;99.90
18797;DHT22;9526;52.612;13.300;2022-08-19T06:34:19;23.00;99.90
18797;DHT22;9526;52.612;13.300;2022-08-19T06:36:45;23.10;99.90
18797;DHT22;9526;52.612;13.300;2022-08-19T06:39:13;23.10;99.90
18797;DHT22;9526;52.612;13.300;2022-08-19T06:41:41;23.10;99.90
18797;DHT22;9526;52.612;13.300;2022-08-19T06:44:13;23.20;99.90
18797;DHT22;9526;52.612;13.300;2022-08-19T06:46:41;23.30;99.90
18797;DHT22;9526;52.612;13.300;2022-08-19T06:49:14;23.20;99.90
18797;DHT22;9526;52.612;13.300;2022-08-19T06:51:38;23.20;99.90
18797;DHT22;9526;52.612;13.300;2022-08-19T06:54:05;23.10;99.90
18797;DHT22;9526;52.612;13.300;2022-08-19T06:56:41;23.20;99.90
18797;DHT22;9526;52.612;13.300;2022-08-19T06:59:08;23.30;99.90
18797;DHT22;9526;52.612;13.300;2022-08-19T07:01:35;23.10;99.90
18797;DHT22;9526;52.612;13.300;2022-08-19T07:04:00;23.20;99.90
18797;DHT22;9526;52.612;13.300;2022-08-19T07:06:24;23.30;99.90
18797;DHT22;9526;52.612;13.300;2022-08-19T07:09:06;23.40;99.90
18797;DHT22;9526;52.612;13.300;2022-08-19T07:11:33;23.30;99.90
18797;DHT22;9526;52.612;13.300;2022-08-19T07:13:57;23.40;99.90
18797;DHT22;9526;52.612;13.300;2022-08-19T07:16:20;23.40;99.90
18797;DHT22;9526;52.612;13.300;2022-08-19T07:18:51;23.50;99.90
18797;DHT22;9526;52.612;13.300;2022-08-19T07:21:18;23.50;99.90
18797;DHT22;9526;52.612;13.300;2022-08-19T07:23:44;23.50;99.90
18797;DHT22;9526;52.612;13.300;2022-08-19T07:26:10;23.50;99.90
18797;DHT22;9526;52.612;13.300;2022-08-19T07:28:36;23.60;99.90
18797;DHT22;9526;52.612;13.300;2022-08-19T07:31:13;23.60;99.90
18797;DHT22;9526;52.612;13.300;2022-08-19T07:33:46;23.60;99.90
18797;DHT22;9526;52.612;13.300;2022-08-19T07:36:17;23.60;99.90
18797;DHT22;9526;52.612;13.300;2022-08-19T07:38:46;23.50;99.90
18797;DHT22;9526;52.612;13.300;2022-08-19T07:41:13;23.60;99.90
18797;DHT22;9526;52.612;13.300;2022-08-19T07:43:39;23.50;99.90
18797;DHT22;9526;52.612;13.300;2022-08-19T07:46:05;23.50;99.90
18797;DHT22;9526;52.612;13.300;2022-08-19T07:48:34;23.50;99.90
18797;DHT22;9526;52.612;13.300;2022-08-19T07:51:00;23.30;99.90
18797;DHT22;9526;52.612;13.300;2022-08-19T07:53:29;23.30;99.90
18797;DHT22;9526;52.612;13.300;2022-08-19T07:56:00;23.30;99.90
18797;DHT22;9526;52.612;13.300;2022-08-19T07:58:26;23.40;99.90
18797;DHT22;9526;52.612;13.300;2022-08-19T08:00:50;23.50;99.90
18797;DHT22;9526;52.612;13.300;2022-08-19T08:03:15;23.50;99.90
18797;DHT22;9526;52.612;13.300;2022-08-19T08:05:41;23.50;99.90
18797;DHT22;9526;52.612;13.300;2022-08-19T08:08:22;23.60;99.90
18797;DHT22;9526;52.612;13.300;2022-08-19T08:11:10;23.60;99.90
18797;DHT22;9526;52.612;13.300;2022-08-19T08:13:36;23.70;99.90
18797;DHT22;9526;52.612;13.300;2022-08-19T08:16:00;23.70;99.90
18797;DHT22;9526;52.612;13.300;2022-08-19T08:18:25;23.60;99.90
18797;DHT22;9526;52.612;13.300;2022-08-19T08:20:51;23.70;99.90
18797;DHT22;9526;52.612;13.300;2022-08-19T08:23:15;23.70;99.90
18797;DHT22;9526;52.612;13.300;2022-08-19T08:25:48;23.60;99.90
18797;DHT22;9526;52.612;13.300;2022-08-19T08:28:14;23.60;99.90
18797;DHT22;9526;52.612;13.300;2022-08-19T08:30:39;23.70;99.90
18797;DHT22;9526;52.612;13.300;2022-08-19T08:33:06;23.80;99.90
18797;DHT22;9526;52.612;13.300;2022-08-19T08:35:30;23.90;99.90
18797;DHT22;9526;52.612;13.300;2022-08-19T08:37:54;24.00;99.90
18797;DHT22;9526;52.612;13.300;2022-08-19T08:40:21;24.00;99.90
18797;DHT22;9526;52.612;13.300;2022-08-19T08:42:51;24.10;99.90
18797;DHT22;9526;52.612;13.300;2022-08-19T08:45:22;24.20;99.90
18797;DHT22;9526;52.612;13.300;2022-08-19T08:47:49;24.20;99.90
18797;DHT22;9526;52.612;13.300;2022-08-19T08:50:20;24.30;99.90
18797;DHT22;9526;52.612;13.300;2022-08-19T08:52:49;24.30;99.90
18797;DHT22;9526;52.612;13.300;2022-08-19T08:55:19;24.30;99.90
18797;DHT22;9526;52.612;13.300;2022-08-19T08:57:51;24.30;99.90
18797;DHT22;9526;52.612;13.300;2022-08-19T09:00:23;24.20;99.90
18797;DHT22;9526;52.612;13.300;2022-08-19T09:02:48;24.20;99.90
18797;DHT22;9526;52.612;13.300;2022-08-19T09:05:13;24.20;99.90
18797;DHT22;9526;52.612;13.300;2022-08-19T09:07:44;24.30;99.90
18797;DHT22;9526;52.612;13.300;2022-08-19T09:10:19;24.20;99.90
18797;DHT22;9526;52.612;13.300;2022-08-19T09:12:53;24.30;99.90
18797;DHT22;9526;52.612;13.300;2022-08-19T09:15:28;24.40;99.90
18797;DHT22;9526;52.612;13.300;2022-08-19T09:18:00;24.30;99.90
18797;DHT22;9526;52.612;13.300;2022-08-19T09:20:28;24.30;99.90
18797;DHT22;9526;52.612;13.300;2022-08-19T09:22:53;24.30;99.90
18797;DHT22;9526;52.612;13.300;2022-08-19T09:25:20;24.20;99.90
18797;DHT22;9526;52.612;13.300;2022-08-19T09:27:51;24.30;99.90
18797;DHT22;9526;52.612;13.300;2022-08-19T09:30:29;24.20;99.90
18797;DHT22;9526;52.612;13.300;2022-08-19T09:32:54;24.40;99.90
18797;DHT22;9526;52.612;13.300;2022-08-19T09:35:20;24.40;99.90
18797;DHT22;9526;52.612;13.300;2022-08-19T09:37:45;24.40;99.90
18797;DHT22;9526;52.612;13.300;2022-08-19T09:40:10;24.50;99.90
18797;DHT22;9526;52.612;13.300;2022-08-19T09:42:36;24.60;99.90
18797;DHT22;9526;52.612;13.300;2022-08-19T09:45:11;24.70;99.90
18797;DHT22;9526;52.612;13.300;2022-08-19T09:47:37;24.90;99.90
18797;DHT22;9526;52.612;13.300;2022-08-19T09:50:02;24.90;99.90
18797;DHT22;9526;52.612;13.300;2022-08-19T09:52:26;24.70;99.90
18797;DHT22;9526;52.612;13.300;2022-08-19T09:54:53;24.90;99.90
18797;DHT22;9526;52.612;13.300;2022-08-19T09:57:17;24.90;99.90
18797;DHT22;9526;52.612;13.300;2022-08-19T09:59:41;24.90;99.90
18797;DHT22;9526;52.612;13.300;2022-08-19T10:02:06;24.80;99.90
18797;DHT22;9526;52.612;13.300;2022-08-19T10:04:33;25.00;99.90
18797;DHT22;9526;52.612;13.300;2022-08-19T10:07:15;25.10;99.90
18797;DHT22;9526;52.612;13.300;2022-08-19T10:09:38;25.30;99.90
18797;DHT22;9526;52.612;13.300;2022-08-19T10:12:04;25.50;99.90
18797;DHT22;9526;52.612;13.300;2022-08-19T10:14:32;25.50;99.90
18797;DHT22;9526;52.612;13.300;2022-08-19T10:16:57;25.40;99.90
18797;DHT22;9526;52.612;13.300;2022-08-19T10:19:40;25.50;99.90
18797;DHT22;9526;52.612;13.300;2022-08-19T10:22:17;25.40;99.90
18797;DHT22;9526;52.612;13.300;2022-08-19T10:24:41;25.40;99.90
18797;DHT22;9526;52.612;13.300;2022-08-19T10:27:05;25.60;99.90
18797;DHT22;9526;52.612;13.300;2022-08-19T10:29:30;25.60;99.90
18797;DHT22;9526;52.612;13.300;2022-08-19T10:31:56;25.60;99.90
18797;DHT22;9526;52.612;13.300;2022-08-19T10:34:23;25.70;99.90
18797;DHT22;9526;52.612;13.300;2022-08-19T10:36:51;25.80;99.90
18797;DHT22;9526;52.612;13.300;2022-08-19T10:39:17;25.80;99.90
18797;DHT22;9526;52.612;13.300;2022-08-19T10:41:44;25.80;99.90
18797;DHT22;9526;52.612;13.300;2022-08-19T10:44:10;25.80;99.90
18797;DHT22;9526;52.612;13.300;2022-08-19T10:46:37;25.80;99.90
18797;DHT22;9526;52.612;13.300;2022-08-19T10:49:10;25.60;99.90
18797;DHT22;9526;52.612;13.300;2022-08-19T10:51:34;25.60;99.90
18797;DHT22;9526;52.612;13.300;2022-08-19T10:54:17;25.60;99.90
18797;DHT22;9526;52.612;13.300;2022-08-19T10:56:55;25.50;99.90
18797;DHT22;9526;52.612;13.300;2022-08-19T10:59:21;25.50;99.90
18797;DHT22;9526;52.612;13.300;2022-08-19T11:01:48;25.60;99.90
18797;DHT22;9526;52.612;13.300;2022-08-19T11:04:25;25.70;99.90
18797;DHT22;9526;52.612;13.300;2022-08-19T11:06:50;25.70;99.90
18797;DHT22;9526;52.612;13.300;2022-08-19T11:09:15;25.80;99.90
18797;DHT22;9526;52.612;13.300;2022-08-19T11:11:43;25.60;99.90
18797;DHT22;9526;52.612;13.300;2022-08-19T11:14:06;25.50;99.90
18797;DHT22;9526;52.612;13.300;2022-08-19T11:16:31;25.70;99.90
18797;DHT22;9526;52.612;13.300;2022-08-19T11:18:57;25.60;99.90
18797;DHT22;9526;52.612;13.300;2022-08-19T11:21:25;25.70;99.90
18797;DHT22;9526;52.612;13.300;2022-08-19T11:23:52;25.50;99.90
18797;DHT22;9526;52.612;13.300;2022-08-19T11:26:18;25.40;99.90
18797;DHT22;9526;52.612;13.300;2022-08-19T11:28:42;25.40;99.90
18797;DHT22;9526;52.612;13.300;2022-08-19T11:31:10;25.30;99.90
18797;DHT22;9526;52.612;13.300;2022-08-19T11:33:34;25.30;99.90
18797;DHT22;9526;52.612;13.300;2022-08-19T11:35:58;25.30;99.90
18797;DHT22;9526;52.612;13.300;2022-08-19T11:38:24;25.20;99.90
18797;DHT22;9526;52.612;13.300;2022-08-19T11:40:55;25.20;99.90
18797;DHT22;9526;52.612;13.300;2022-08-19T11:43:19;25.30;99.90
18797;DHT22;9526;52.612;13.300;2022-08-19T11:45:43;25.20;99.90
18797;DHT22;9526;52.612;13.300;2022-08-19T11:48:07;25.40;99.90
18797;DHT22;9526;52.612;13.300;2022-08-19T11:50:31;25.40;99.90
18797;DHT22;9526;52.612;13.300;2022-08-19T11:52:55;25.40;99.90
18797;DHT22;9526;52.612;13.300;2022-08-19T11:55:21;25.30;99.90
18797;DHT22;9526;52.612;13.300;2022-08-19T11:57:45;25.20;99.90
18797;DHT22;9526;52.612;13.300;2022-08-19T12:00:09;25.30;99.90
18797;DHT22;9526;52.612;13.300;2022-08-19T12:02:35;25.40;99.90
18797;DHT22;9526;52.612;13.300;2022-08-19T12:04:59;25.40;99.90
18797;DHT22;9526;52.612;13.300;2022-08-19T12:07:23;25.40;99.90
18797;DHT22;9526;52.612;13.300;2022-08-19T12:09:47;25.40;99.90
18797;DHT22;9526;52.612;13.300;2022-08-19T12:12:12;25.40;99.90
18797;DHT22;9526;52.612;13.300;2022-08-19T12:14:36;25.40;99.90
18797;DHT22;9526;52.612;13.300;2022-08-19T12:17:00;25.20;99.90
18797;DHT22;9526;52.612;13.300;2022-08-19T12:19:27;25.30;99.90
18797;DHT22;9526;52.612;13.300;2022-08-19T12:21:51;25.20;99.90
18797;DHT22;9526;52.612;13.300;2022-08-19T12:24:17;25.10;99.90
18797;DHT22;9526;52.612;13.300;2022-08-19T12:26:45;25.20;99.90
18797;DHT22;9526;52.612;13.300;2022-08-19T12:29:15;25.20;99.90
18797;DHT22;9526;52.612;13.300;2022-08-19T12:31:44;25.10;99.90
18797;DHT22;9526;52.612;13.300;2022-08-19T12:34:08;25.10;99.90
18797;DHT22;9526;52.612;13.300;2022-08-19T12:36:32;25.20;99.90
18797;DHT22;9526;52.612;13.300;2022-08-19T12:38:58;25.10;99.90
18797;DHT22;9526;52.612;13.300;2022-08-19T12:41:22;25.00;99.90
18797;DHT22;9526;52.612;13.300;2022-08-19T12:43:45;25.10;99.90
18797;DHT22;9526;52.612;13.300;2022-08-19T12:46:12;25.10;99.90
18797;DHT22;9526;52.612;13.300;2022-08-19T12:48:39;25.00;99.90
18797;DHT22;9526;52.612;13.300;2022-08-19T12:51:08;24.90;99.90
18797;DHT22;9526;52.612;13.300;2022-08-19T12:53:32;25.00;99.90
18797;DHT22;9526;52.612;13.300;2022-08-19T12:56:00;25.20;99.90
18797;DHT22;9526;52.612;13.300;2022-08-19T12:58:29;25.10;99.90
18797;DHT22;9526;52.612;13.300;2022-08-19T13:00:56;25.10;99.90
18797;DHT22;9526;52.612;13.300;2022-08-19T13:03:21;25.10;99.90
18797;DHT22;9526;52.612;13.300;2022-08-19T13:05:50;25.20;99.90
18797;DHT22;9526;52.612;13.300;2022-08-19T13:08:14;25.40;99.90
18797;DHT22;9526;52.612;13.300;2022-08-19T13:10:38;25.40;99.90
18797;DHT22;9526;52.612;13.300;2022-08-19T13:13:04;25.60;99.90
18797;DHT22;9526;52.612;13.300;2022-08-19T13:15:33;25.80;99.90
18797;DHT22;9526;52.612;13.300;2022-08-19T13:17:57;26.00;99.90
18797;DHT22;9526;52.612;13.300;2022-08-19T13:20:23;26.10;99.90
18797;DHT22;9526;52.612;13.300;2022-08-19T13:22:48;26.40;99.90
18797;DHT22;9526;52.612;13.300;2022-08-19T13:25:14;26.60;99.90
18797;DHT22;9526;52.612;13.300;2022-08-19T13:27:41;26.80;99.90
18797;DHT22;9526;52.612;13.300;2022-08-19T13:30:06;27.00;99.90
18797;DHT22;9526;52.612;13.300;2022-08-19T13:32:49;26.80;99.90
18797;DHT22;9526;52.612;13.300;2022-08-19T13:35:31;26.70;99.90
18797;DHT22;9526;52.612;13.300;2022-08-19T13:37:55;26.70;99.90
18797;DHT22;9526;52.612;13.300;2022-08-19T13:40:21;26.70;99.90
18797;DHT22;9526;52.612;13.300;2022-08-19T13:42:49;26.70;99.90
18797;DHT22;9526;52.612;13.300;2022-08-19T13:45:15;26.70;99.90
18797;DHT22;9526;52.612;13.300;2022-08-19T13:47:41;26.80;99.90
18797;DHT22;9526;52.612;13.300;2022-08-19T13:50:07;26.90;99.90
18797;DHT22;9526;52.612;13.300;2022-08-19T13:52:33;27.10;99.90
18797;DHT22;9526;52.612;13.300;2022-08-19T13:54:57;26.90;99.90
18797;DHT22;9526;52.612;13.300;2022-08-19T13:57:21;27.20;99.90
18797;DHT22;9526;52.612;13.300;2022-08-19T13:59:44;27.10;99.90
18797;DHT22;9526;52.612;13.300;2022-08-19T14:02:08;27.00;99.90
18797;DHT22;9526;52.612;13.300;2022-08-19T14:04:32;26.90;99.90
18797;DHT22;9526;52.612;13.300;2022-08-19T14:06:56;26.80;99.90
18797;DHT22;9526;52.612;13.300;2022-08-19T14:09:21;27.00;99.90
18797;DHT22;9526;52.612;13.300;2022-08-19T14:11:45;26.90;99.90
18797;DHT22;9526;52.612;13.300;2022-08-19T14:14:08;26.70;99.90
18797;DHT22;9526;52.612;13.300;2022-08-19T14:16:37;27.00;99.90
18797;DHT22;9526;52.612;13.300;2022-08-19T14:19:01;26.90;99.90
18797;DHT22;9526;52.612;13.300;2022-08-19T14:21:25;26.70;99.90
18797;DHT22;9526;52.612;13.300;2022-08-19T14:23:49;26.50;99.90
18797;DHT22;9526;52.612;13.300;2022-08-19T14:26:16;26.50;99.90
18797;DHT22;9526;52.612;13.300;2022-08-19T14:28:41;26.80;99.90
18797;DHT22;9526;52.612;13.300;2022-08-19T14:31:05;26.70;99.90
18797;DHT22;9526;52.612;13.300;2022-08-19T14:33:29;26.80;99.90
18797;DHT22;9526;52.612;13.300;2022-08-19T14:35:53;26.80;99.90
18797;DHT22;9526;52.612;13.300;2022-08-19T14:38:21;26.80;99.90
18797;DHT22;9526;52.612;13.300;2022-08-19T14:40:52;26.70;99.90
18797;DHT22;9526;52.612;13.300;2022-08-19T14:43:18;26.70;99.90
18797;DHT22;9526;52.612;13.300;2022-08-19T14:45:41;26.60;99.90
18797;DHT22;9526;52.612;13.300;2022-08-19T14:48:06;26.40;99.90
18797;DHT22;9526;52.612;13.300;2022-08-19T14:50:41;26.40;99.90
18797;DHT22;9526;52.612;13.300;2022-08-19T14:53:07;26.20;99.90
18797;DHT22;9526;52.612;13.300;2022-08-19T14:55:34;26.20;99.90
18797;DHT22;9526;52.612;13.300;2022-08-19T14:57:58;26.20;99.90
18797;DHT22;9526;52.612;13.300;2022-08-19T15:00:27;26.20;99.90
18797;DHT22;9526;52.612;13.300;2022-08-19T15:02:52;26.20;99.90
18797;DHT22;9526;52.612;13.300;2022-08-19T15:05:16;26.20;99.90
18797;DHT22;9526;52.612;13.300;2022-08-19T15:07:40;26.10;99.90
18797;DHT22;9526;52.612;13.300;2022-08-19T15:10:05;26.00;99.90
18797;DHT22;9526;52.612;13.300;2022-08-19T15:12:31;26.10;99.90
18797;DHT22;9526;52.612;13.300;2022-08-19T15:14:56;26.20;99.90
18797;DHT22;9526;52.612;13.300;2022-08-19T15:17:21;26.10;99.90
18797;DHT22;9526;52.612;13.300;2022-08-19T15:20:06;25.90;99.90
18797;DHT22;9526;52.612;13.300;2022-08-19T15:22:30;25.70;99.90
18797;DHT22;9526;52.612;13.300;2022-08-19T15:24:54;25.80;99.90
18797;DHT22;9526;52.612;13.300;2022-08-19T15:27:19;25.70;99.90